createdAt,value
2023-04-18T00:01:49.176Z,99.90
2023-04-18T00:04:18.551Z,99.90
2023-04-18T00:06:47.393Z,99.90
2023-04-18T00:09:14.776Z,99.90
2023-04-18T00:11:41.980Z,99.90
2023-04-18T00:14:10.588Z,99.90
2023-04-18T00:16:38.940Z,99.90
2023-04-18T00:19:06.743Z,99.90
2023-04-18T00:21:34.057Z,99.90
2023-04-18T00:24:01.304Z,99.90
2023-04-18T00:26:28.603Z,99.90
2023-04-18T00:28:55.923Z,99.90
2023-04-18T00:31:23.319Z,99.90
2023-04-18T00:33:50.803Z,99.90
2023-04-18T00:36:18.050Z,99.90
2023-04-18T00:38:45.236Z,99.90
2023-04-18T00:41:12.391Z,99.90
2023-04-18T00:43:39.817Z,99.90
2023-04-18T00:46:07.141Z,99.90
2023-04-18T00:48:34.385Z,99.90
2023-04-18T00:51:01.711Z,99.90
2023-04-18T00:53:29.356Z,99.90
2023-04-18T00:55:56.554Z,99.90
2023-04-18T00:58:24.754Z,99.90
2023-04-18T01:00:52.360Z,99.90
2023-04-18T01:03:22.852Z,99.90
2023-04-18T01:05:50.470Z,99.90
2023-04-18T01:08:19.309Z,99.90
2023-04-18T01:10:46.860Z,99.90
2023-04-18T01:13:18.848Z,99.90
2023-04-18T01:15:50.924Z,99.90
2023-04-18T01:18:18.650Z,99.90
2023-04-18T01:20:50.767Z,99.90
2023-04-18T01:23:19.456Z,99.90
2023-04-18T01:25:47.670Z,99.90
2023-04-18T01:28:15.491Z,99.90
2023-04-18T01:30:42.757Z,99.90
2023-04-18T01:33:09.985Z,99.90
2023-04-18T01:35:37.324Z,99.90
2023-04-18T01:38:04.588Z,99.90
2023-04-18T01:40:31.831Z,99.90
2023-04-18T01:42:59.215Z,99.90
2023-04-18T01:45:26.939Z,99.90
2023-04-18T01:47:54.112Z,99.90
2023-04-18T01:50:21.508Z,99.90
2023-04-18T01:52:48.884Z,99.90
2023-04-18T01:55:16.236Z,99.90
2023-04-18T01:57:43.664Z,99.90
2023-04-18T02:00:11.687Z,99.90
2023-04-18T02:02:39.426Z,99.90
2023-04-18T02:05:07.271Z,99.90
2023-04-18T02:07:34.530Z,99.90
2023-04-18T02:10:02.633Z,99.90
2023-04-18T02:12:29.882Z,99.90
2023-04-18T02:14:57.198Z,99.90
2023-04-18T02:17:24.567Z,99.90
2023-04-18T02:19:52.240Z,99.90
2023-04-18T02:22:19.640Z,99.90
2023-04-18T02:24:46.968Z,99.90
2023-04-18T02:27:14.446Z,99.90
2023-04-18T02:29:41.687Z,99.90
2023-04-18T02:32:09.468Z,99.90
2023-04-18T02:34:37.431Z,99.90
2023-04-18T02:37:05.474Z,99.90
2023-04-18T02:39:33.023Z,99.90
2023-04-18T02:42:01.828Z,99.90
2023-04-18T02:44:29.188Z,99.90
2023-04-18T02:46:56.656Z,99.90
2023-04-18T02:49:24.045Z,99.90
2023-04-18T02:51:56.339Z,99.90
2023-04-18T02:54:25.454Z,99.90
2023-04-18T02:56:54.253Z,99.90
2023-04-18T02:59:21.683Z,99.90
2023-04-18T03:01:49.111Z,99.90
2023-04-18T03:04:17.016Z,99.90
2023-04-18T03:06:44.296Z,99.90
2023-04-18T03:09:11.732Z,99.90
2023-04-18T03:11:39.004Z,99.90
2023-04-18T03:14:06.389Z,99.90
2023-04-18T03:16:33.958Z,99.90
2023-04-18T03:19:01.736Z,99.90
2023-04-18T03:21:29.077Z,99.90
2023-04-18T03:23:56.603Z,99.90
2023-04-18T03:26:25.628Z,99.90
2023-04-18T03:28:52.852Z,99.90
2023-04-18T03:31:26.812Z,99.90
2023-04-18T03:33:54.165Z,99.90
2023-04-18T03:36:25.385Z,99.90
2023-04-18T03:38:52.717Z,99.90
2023-04-18T03:41:19.971Z,99.90
2023-04-18T03:43:47.300Z,99.90
2023-04-18T03:46:14.714Z,99.90
2023-04-18T03:48:42.089Z,99.90
2023-04-18T03:51:09.413Z,99.90
2023-04-18T03:53:36.799Z,99.90
2023-04-18T03:56:04.332Z,99.90
2023-04-18T03:58:31.650Z,99.90
2023-04-18T04:00:59.004Z,99.90
2023-04-18T04:03:28.029Z,99.90
2023-04-18T04:05:55.581Z,99.90
2023-04-18T04:08:23.226Z,99.90
2023-04-18T04:10:50.843Z,99.90
2023-04-18T04:13:18.244Z,99.90
2023-04-18T04:15:45.610Z,99.90
2023-04-18T04:18:12.973Z,99.90
2023-04-18T04:20:40.187Z,99.90
2023-04-18T04:23:07.481Z,99.90
2023-04-18T04:25:34.879Z,99.90
2023-04-18T04:28:03.166Z,99.90
2023-04-18T04:30:30.751Z,99.90
2023-04-18T04:32:58.498Z,99.90
2023-04-18T04:35:26.760Z,99.90
2023-04-18T04:37:54.016Z,99.90
2023-04-18T04:40:23.104Z,99.90
2023-04-18T04:42:54.093Z,99.90
2023-04-18T04:45:21.823Z,99.90
2023-04-18T04:47:49.138Z,99.90
2023-04-18T04:50:19.313Z,99.90
2023-04-18T04:52:46.507Z,99.90
2023-04-18T04:55:13.757Z,99.90
2023-04-18T04:57:40.987Z,99.90
2023-04-18T05:00:09.650Z,99.90
2023-04-18T05:02:37.779Z,99.90
2023-04-18T05:05:14.543Z,99.90
2023-04-18T05:07:41.971Z,99.90
2023-04-18T05:10:09.789Z,99.90
2023-04-18T05:12:37.276Z,99.90
2023-04-18T05:15:04.806Z,99.90
2023-04-18T05:17:32.079Z,99.90
2023-04-18T05:19:59.365Z,99.90
2023-04-18T05:22:27.215Z,99.90
2023-04-18T05:24:54.442Z,99.90
2023-04-18T05:27:22.034Z,99.90
2023-04-18T05:29:50.461Z,99.90
2023-04-18T05:32:18.112Z,99.90
2023-04-18T05:34:47.202Z,99.90
2023-04-18T05:37:14.685Z,99.90
2023-04-18T05:39:42.373Z,99.90
2023-04-18T05:42:09.560Z,99.90
2023-04-18T05:44:37.091Z,99.90
2023-04-18T05:47:07.907Z,99.90
2023-04-18T05:49:35.105Z,99.90
2023-04-18T05:52:02.338Z,99.90
2023-04-18T05:54:29.580Z,99.90
2023-04-18T05:56:57.453Z,99.90
2023-04-18T05:59:27.102Z,99.90
2023-04-18T06:01:54.644Z,99.90
2023-04-18T06:04:22.109Z,99.90
2023-04-18T06:06:49.419Z,99.90
2023-04-18T06:09:16.761Z,99.90
2023-04-18T06:11:43.978Z,99.90
2023-04-18T06:14:11.407Z,99.90
2023-04-18T06:16:38.961Z,99.90
2023-04-18T06:19:06.431Z,99.90
2023-04-18T06:21:33.693Z,99.90
2023-04-18T06:24:01.787Z,99.90
2023-04-18T06:26:30.351Z,99.90
2023-04-18T06:28:57.569Z,99.90
2023-04-18T06:31:24.850Z,99.90
2023-04-18T06:33:52.128Z,99.90
2023-04-18T06:36:19.968Z,99.90
2023-04-18T06:38:47.203Z,99.90
2023-04-18T06:41:17.238Z,99.90
2023-04-18T06:43:55.735Z,99.90
2023-04-18T06:46:29.379Z,99.90
2023-04-18T06:48:56.850Z,99.90
2023-04-18T06:51:24.109Z,99.90
2023-04-18T06:54:10.060Z,99.90
2023-04-18T06:56:37.573Z,99.90
2023-04-18T06:59:04.819Z,99.90
2023-04-18T07:01:35.534Z,99.90
2023-04-18T07:04:02.859Z,99.90
2023-04-18T07:06:30.140Z,99.90
2023-04-18T07:09:01.502Z,99.90
2023-04-18T07:11:29.652Z,99.90
2023-04-18T07:13:56.881Z,99.90
2023-04-18T07:16:24.105Z,99.90
2023-04-18T07:18:51.836Z,99.90
2023-04-18T07:21:19.513Z,99.90
2023-04-18T07:23:46.727Z,99.90
2023-04-18T07:26:14.039Z,99.90
2023-04-18T07:28:41.296Z,99.90
2023-04-18T07:31:11.540Z,99.90
2023-04-18T07:33:39.094Z,99.90
2023-04-18T07:36:06.728Z,99.90
2023-04-18T07:38:35.635Z,99.90
2023-04-18T07:41:03.771Z,99.90
2023-04-18T07:43:31.295Z,99.90
2023-04-18T07:45:58.714Z,99.90
2023-04-18T07:48:26.062Z,99.90
2023-04-18T07:50:54.265Z,99.90
2023-04-18T07:53:21.494Z,99.90
2023-04-18T07:55:49.506Z,99.90
2023-04-18T07:58:17.100Z,99.90
2023-04-18T08:00:45.046Z,99.90
2023-04-18T08:03:13.062Z,99.90
2023-04-18T08:05:42.073Z,99.90
2023-04-18T08:08:11.276Z,99.90
2023-04-18T08:10:38.557Z,99.90
2023-04-18T08:13:07.365Z,99.90
2023-04-18T08:15:34.738Z,99.90
2023-04-18T08:18:02.518Z,99.90
2023-04-18T08:20:29.755Z,99.90
2023-04-18T08:23:07.631Z,99.90
2023-04-18T08:25:36.622Z,99.90
2023-04-18T08:28:04.270Z,99.90
2023-04-18T08:30:31.684Z,99.90
2023-04-18T08:33:00.511Z,99.90
2023-04-18T08:35:27.997Z,99.90
2023-04-18T08:37:55.162Z,99.90
2023-04-18T08:40:22.477Z,99.90
2023-04-18T08:42:52.622Z,99.90
2023-04-18T08:45:21.057Z,99.90
2023-04-18T08:47:48.487Z,99.90
2023-04-18T08:50:17.511Z,99.90
2023-04-18T08:52:49.392Z,99.90
2023-04-18T08:55:17.119Z,99.90
2023-04-18T08:57:45.110Z,99.90
2023-04-18T09:00:13.339Z,99.90
2023-04-18T09:02:45.215Z,99.90
2023-04-18T09:05:21.492Z,99.90
2023-04-18T09:07:50.555Z,99.90
2023-04-18T09:10:33.166Z,99.90
2023-04-18T09:13:03.465Z,99.90
2023-04-18T09:15:31.314Z,99.90
2023-04-18T09:18:01.784Z,99.90
2023-04-18T09:20:38.339Z,99.90
2023-04-18T09:23:11.336Z,99.90
2023-04-18T09:25:44.414Z,99.90
2023-04-18T09:28:24.108Z,99.90
2023-04-18T09:30:52.809Z,99.90
2023-04-18T09:33:34.962Z,99.90
2023-04-18T09:36:17.687Z,99.90
2023-04-18T09:38:45.421Z,99.90
2023-04-18T09:41:15.780Z,99.90
2023-04-18T09:43:43.982Z,99.90
2023-04-18T09:46:12.685Z,99.90
2023-04-18T09:48:41.005Z,99.40
2023-04-18T09:51:10.930Z,99.60
2023-04-18T09:53:40.133Z,99.70
2023-04-18T09:56:12.849Z,99.00
2023-04-18T09:58:42.326Z,99.60
2023-04-18T10:01:09.746Z,99.90
2023-04-18T10:03:45.154Z,99.10
2023-04-18T10:06:15.025Z,95.20
2023-04-18T10:08:46.360Z,95.10
2023-04-18T10:11:13.980Z,95.20
2023-04-18T10:13:44.602Z,94.50
2023-04-18T10:16:12.313Z,92.10
2023-04-18T10:18:39.489Z,92.60
2023-04-18T10:21:09.020Z,92.40
2023-04-18T10:23:38.341Z,92.10
2023-04-18T10:26:06.788Z,91.90
2023-04-18T10:29:04.201Z,92.30
2023-04-18T10:31:39.543Z,92.30
2023-04-18T10:34:07.723Z,93.40
2023-04-18T10:36:34.967Z,92.30
2023-04-18T10:39:04.242Z,91.80
2023-04-18T10:41:33.956Z,90.70
2023-04-18T10:44:12.094Z,90.20
2023-04-18T10:47:04.099Z,86.40
2023-04-18T10:49:34.296Z,86.20
2023-04-18T10:52:04.868Z,87.40
2023-04-18T10:55:07.352Z,85.40
2023-04-18T10:57:48.616Z,84.50
2023-04-18T11:00:21.808Z,85.60
2023-04-18T11:02:54.108Z,84.70
2023-04-18T11:05:24.340Z,86.30
2023-04-18T11:07:52.002Z,80.90
2023-04-18T11:10:22.201Z,82.40
2023-04-18T11:12:49.761Z,81.00
2023-04-18T11:15:22.248Z,80.40
2023-04-18T11:18:01.479Z,79.70
2023-04-18T11:20:30.096Z,80.00
2023-04-18T11:22:59.531Z,80.60
2023-04-18T11:25:32.154Z,79.80
2023-04-18T11:28:00.947Z,78.80
2023-04-18T11:30:35.925Z,77.80
2023-04-18T11:33:08.538Z,76.20
2023-04-18T11:35:46.443Z,78.40
2023-04-18T11:38:15.931Z,78.10
2023-04-18T11:40:50.929Z,77.40
2023-04-18T11:43:25.694Z,77.30
2023-04-18T11:45:57.936Z,77.60
2023-04-18T11:48:45.362Z,77.30
2023-04-18T11:51:32.184Z,76.70
2023-04-18T11:53:59.411Z,77.50
2023-04-18T11:56:26.631Z,79.00
2023-04-18T11:58:54.103Z,78.30
2023-04-18T12:01:25.758Z,79.30
2023-04-18T12:04:07.410Z,77.00
2023-04-18T12:06:52.753Z,77.20
2023-04-18T12:09:22.622Z,78.00
2023-04-18T12:12:01.104Z,80.10
2023-04-18T12:14:28.857Z,81.90
2023-04-18T12:16:56.497Z,81.70
2023-04-18T12:19:28.510Z,82.20
2023-04-18T12:21:57.211Z,83.40
2023-04-18T12:24:25.353Z,85.00
2023-04-18T12:26:53.333Z,85.70
2023-04-18T12:29:20.556Z,84.80
2023-04-18T12:31:48.158Z,83.70
2023-04-18T12:34:15.658Z,83.80
2023-04-18T12:36:43.333Z,85.40
2023-04-18T12:39:10.931Z,85.40
2023-04-18T12:41:38.262Z,86.60
2023-04-18T12:44:06.093Z,85.80
2023-04-18T12:46:33.448Z,85.20
2023-04-18T12:49:00.954Z,85.70
2023-04-18T12:51:28.256Z,86.20
2023-04-18T12:53:55.597Z,88.00
2023-04-18T12:56:22.940Z,88.40
2023-04-18T12:58:50.355Z,88.60
2023-04-18T13:01:18.216Z,89.50
2023-04-18T13:03:51.074Z,90.00
2023-04-18T13:06:24.688Z,90.20
2023-04-18T13:08:52.245Z,88.90
2023-04-18T13:11:20.677Z,89.60
2023-04-18T13:13:47.854Z,90.30
2023-04-18T13:16:15.112Z,90.00
2023-04-18T13:18:42.326Z,90.60
2023-04-18T13:21:09.680Z,90.40
2023-04-18T13:23:36.999Z,89.20
2023-04-18T13:26:04.206Z,92.90
2023-04-18T13:28:31.545Z,94.60
2023-04-18T13:30:59.823Z,96.70
2023-04-18T13:33:27.035Z,98.20
2023-04-18T13:35:54.388Z,99.00
2023-04-18T13:38:21.672Z,99.90
2023-04-18T13:40:52.043Z,99.90
2023-04-18T13:43:26.155Z,99.90
2023-04-18T13:45:54.369Z,99.90
2023-04-18T13:48:21.506Z,99.90
2023-04-18T13:50:49.506Z,99.90
2023-04-18T13:53:18.411Z,99.90
2023-04-18T13:55:46.048Z,99.90
2023-04-18T13:58:13.357Z,99.90
2023-04-18T14:00:40.595Z,99.90
2023-04-18T14:03:08.661Z,99.90
2023-04-18T14:05:36.119Z,99.90
2023-04-18T14:08:04.261Z,99.90
2023-04-18T14:10:31.779Z,99.90
2023-04-18T14:12:59.082Z,99.90
2023-04-18T14:15:26.376Z,99.90
2023-04-18T14:17:53.719Z,99.90
2023-04-18T14:20:20.950Z,99.90
2023-04-18T14:22:52.365Z,99.90
2023-04-18T14:25:20.381Z,99.90
2023-04-18T14:27:48.244Z,99.90
2023-04-18T14:30:15.829Z,99.90
2023-04-18T14:32:43.597Z,99.90
2023-04-18T14:35:11.055Z,99.90
2023-04-18T14:37:38.242Z,99.90
2023-04-18T14:40:08.468Z,99.90
2023-04-18T14:42:35.953Z,99.90
2023-04-18T14:45:07.207Z,99.90
2023-04-18T14:47:34.999Z,97.50
2023-04-18T14:50:02.463Z,95.80
2023-04-18T14:52:30.031Z,95.90
2023-04-18T14:54:57.301Z,96.10
2023-04-18T14:57:25.487Z,96.30
2023-04-18T14:59:54.672Z,97.00
2023-04-18T15:02:22.439Z,97.50
2023-04-18T15:04:50.239Z,97.00
2023-04-18T15:07:18.315Z,95.10
2023-04-18T15:09:45.565Z,95.70
2023-04-18T15:12:13.052Z,97.30
2023-04-18T15:14:40.424Z,97.80
2023-04-18T15:17:07.786Z,98.50
2023-04-18T15:19:35.117Z,98.70
2023-04-18T15:22:02.569Z,98.90
2023-04-18T15:24:29.938Z,99.20
2023-04-18T15:26:58.265Z,99.40
2023-04-18T15:29:25.634Z,99.90
2023-04-18T15:31:52.839Z,99.50
2023-04-18T15:34:20.091Z,98.70
2023-04-18T15:36:49.329Z,97.40
2023-04-18T15:39:20.377Z,97.70
2023-04-18T15:41:47.612Z,98.10
2023-04-18T15:44:17.922Z,98.70
2023-04-18T15:46:45.347Z,99.20
2023-04-18T15:49:15.362Z,99.90
2023-04-18T15:51:42.634Z,99.90
2023-04-18T15:54:09.872Z,99.90
2023-04-18T15:56:37.403Z,99.90
2023-04-18T15:59:06.010Z,99.90
2023-04-18T16:01:33.544Z,99.90
2023-04-18T16:04:01.122Z,99.90
2023-04-18T16:06:31.329Z,99.90
2023-04-18T16:08:58.724Z,99.90
2023-04-18T16:11:26.410Z,99.90
2023-04-18T16:13:55.795Z,99.90
2023-04-18T16:16:23.185Z,99.90
2023-04-18T16:18:50.460Z,99.90
2023-04-18T16:21:17.726Z,99.90
2023-04-18T16:23:45.012Z,99.90
2023-04-18T16:26:12.234Z,99.90
2023-04-18T16:28:39.543Z,99.90
2023-04-18T16:31:07.608Z,99.90
2023-04-18T16:33:34.859Z,99.90
2023-04-18T16:36:05.307Z,99.90
2023-04-18T16:38:35.153Z,99.90
2023-04-18T16:41:02.495Z,99.90
2023-04-18T16:43:36.540Z,99.90
2023-04-18T16:46:06.569Z,99.90
2023-04-18T16:48:33.864Z,99.90
2023-04-18T16:51:01.292Z,99.90
2023-04-18T16:53:28.502Z,99.90
2023-04-18T16:55:56.083Z,99.90
2023-04-18T16:58:26.300Z,99.90
2023-04-18T17:00:53.695Z,99.90
2023-04-18T17:03:21.103Z,99.90
2023-04-18T17:05:48.446Z,99.90
2023-04-18T17:08:16.587Z,99.90
2023-04-18T17:10:43.786Z,99.90
2023-04-18T17:13:11.013Z,99.90
2023-04-18T17:15:38.556Z,99.90
2023-04-18T17:18:05.822Z,99.90
2023-04-18T17:20:33.017Z,99.90
2023-04-18T17:23:01.207Z,99.90
2023-04-18T17:25:28.511Z,99.90
2023-04-18T17:27:55.787Z,99.90
2023-04-18T17:30:23.057Z,99.90
2023-04-18T17:32:53.735Z,99.90
2023-04-18T17:35:21.180Z,99.90
2023-04-18T17:37:49.794Z,99.90
2023-04-18T17:40:16.948Z,99.90
2023-04-18T17:42:44.310Z,99.90
2023-04-18T17:45:14.311Z,99.90
2023-04-18T17:47:41.560Z,99.90
2023-04-18T17:50:09.210Z,99.90
2023-04-18T17:52:39.676Z,99.90
2023-04-18T17:55:07.478Z,99.90
2023-04-18T17:57:37.274Z,99.90
2023-04-18T18:00:10.364Z,99.90
2023-04-18T18:02:41.525Z,99.90
2023-04-18T18:05:14.494Z,99.90
2023-04-18T18:07:46.032Z,99.90
2023-04-18T18:10:23.292Z,99.90
2023-04-18T18:12:51.419Z,99.90
2023-04-18T18:15:19.160Z,99.90
2023-04-18T18:17:49.829Z,99.90
2023-04-18T18:20:18.262Z,99.90
2023-04-18T18:22:48.056Z,99.90
2023-04-18T18:25:15.564Z,99.90
2023-04-18T18:27:42.827Z,99.90
2023-04-18T18:30:19.318Z,99.90
2023-04-18T18:32:58.684Z,99.90
2023-04-18T18:35:27.986Z,99.90
2023-04-18T18:37:55.960Z,99.90
2023-04-18T18:40:26.543Z,99.90
2023-04-18T18:42:55.198Z,99.90
2023-04-18T18:45:27.178Z,99.90
2023-04-18T18:47:54.411Z,99.90
2023-04-18T18:50:21.679Z,99.90
2023-04-18T18:52:49.005Z,99.90
2023-04-18T18:55:19.267Z,99.90
2023-04-18T18:57:46.884Z,99.90
2023-04-18T19:00:16.640Z,99.90
2023-04-18T19:02:50.478Z,99.90
2023-04-18T19:05:18.071Z,99.90
2023-04-18T19:07:49.894Z,99.90
2023-04-18T19:10:31.691Z,99.90
2023-04-18T19:13:02.693Z,99.90
2023-04-18T19:15:44.689Z,99.90
2023-04-18T19:18:22.878Z,99.90
2023-04-18T19:20:56.107Z,99.90
2023-04-18T19:23:25.717Z,99.90
2023-04-18T19:25:53.077Z,99.90
2023-04-18T19:28:20.323Z,99.90
2023-04-18T19:30:47.651Z,99.90
2023-04-18T19:33:15.003Z,99.90
2023-04-18T19:35:43.241Z,99.90
2023-04-18T19:38:10.513Z,99.90
2023-04-18T19:40:38.264Z,99.90
2023-04-18T19:43:05.742Z,99.90
2023-04-18T19:45:33.033Z,99.90
2023-04-18T19:48:00.549Z,99.90
2023-04-18T19:50:28.089Z,99.90
2023-04-18T19:52:56.082Z,99.90
2023-04-18T19:55:23.371Z,99.90
2023-04-18T19:57:56.802Z,99.90
2023-04-18T20:00:24.064Z,99.90
2023-04-18T20:02:51.633Z,99.90
2023-04-18T20:05:19.086Z,99.90
2023-04-18T20:07:49.570Z,99.90
2023-04-18T20:10:19.327Z,99.90
2023-04-18T20:12:48.251Z,99.90
2023-04-18T20:15:17.012Z,99.90
2023-04-18T20:17:44.242Z,99.90
2023-04-18T20:20:12.171Z,99.90
2023-04-18T20:22:40.491Z,99.90
2023-04-18T20:25:08.747Z,99.90
2023-04-18T20:27:36.004Z,99.90
2023-04-18T20:30:03.484Z,99.90
2023-04-18T20:32:31.078Z,99.90
2023-04-18T20:35:02.998Z,99.90
2023-04-18T20:37:30.425Z,99.90
2023-04-18T20:39:59.573Z,99.90
2023-04-18T20:42:27.567Z,99.90
2023-04-18T20:44:54.803Z,99.90
2023-04-18T20:47:22.039Z,99.90
2023-04-18T20:49:50.604Z,99.90
2023-04-18T20:52:17.765Z,99.90
2023-04-18T20:54:44.993Z,99.90
2023-04-18T20:57:12.256Z,99.90
2023-04-18T20:59:39.392Z,99.90
2023-04-18T21:02:09.854Z,99.90
2023-04-18T21:04:37.454Z,99.90
2023-04-18T21:07:04.907Z,99.90
2023-04-18T21:09:36.537Z,99.90
2023-04-18T21:12:06.642Z,99.90
2023-04-18T21:14:33.879Z,99.90
2023-04-18T21:17:03.332Z,99.90
2023-04-18T21:19:30.623Z,99.90
2023-04-18T21:21:57.886Z,99.90
2023-04-18T21:24:25.193Z,99.90
2023-04-18T21:26:52.416Z,99.90
2023-04-18T21:29:19.850Z,99.90
2023-04-18T21:31:49.055Z,99.90
2023-04-18T21:34:16.672Z,99.90
2023-04-18T21:36:44.018Z,99.90
2023-04-18T21:39:11.364Z,99.90
2023-04-18T21:41:38.796Z,99.90
2023-04-18T21:44:06.143Z,99.90
2023-04-18T21:46:33.663Z,99.90
2023-04-18T21:49:01.096Z,99.90
2023-04-18T21:51:28.522Z,99.90
2023-04-18T21:53:55.884Z,99.90
2023-04-18T21:56:23.229Z,99.90
2023-04-18T21:58:50.531Z,99.90
2023-04-18T22:01:17.891Z,99.90
2023-04-18T22:03:45.410Z,99.90
2023-04-18T22:06:12.724Z,99.90
2023-04-18T22:08:42.160Z,99.90
2023-04-18T22:11:11.918Z,99.90
2023-04-18T22:13:39.315Z,99.90
2023-04-18T22:16:08.372Z,99.90
2023-04-18T22:18:37.613Z,99.90
2023-04-18T22:21:05.442Z,99.90
2023-04-18T22:23:32.926Z,99.90
2023-04-18T22:26:00.225Z,99.90
2023-04-18T22:28:28.619Z,99.90
2023-04-18T22:30:56.161Z,99.90
2023-04-18T22:33:23.824Z,99.90
2023-04-18T22:35:51.254Z,99.90
2023-04-18T22:38:18.649Z,99.90
2023-04-18T22:40:48.887Z,99.90
2023-04-18T22:43:17.055Z,99.90
2023-04-18T22:45:45.895Z,99.90
2023-04-18T22:48:13.449Z,99.90
2023-04-18T22:50:43.332Z,99.90
2023-04-18T22:53:11.309Z,99.90
2023-04-18T22:55:40.546Z,99.90
2023-04-18T22:58:08.563Z,99.90
2023-04-18T23:00:36.335Z,99.90
2023-04-18T23:03:04.181Z,99.90
2023-04-18T23:05:31.579Z,99.90
2023-04-18T23:08:00.322Z,99.90
2023-04-18T23:10:28.019Z,99.90
2023-04-18T23:12:55.274Z,99.90
2023-04-18T23:15:23.108Z,99.90
2023-04-18T23:17:53.135Z,99.90
2023-04-18T23:20:21.363Z,99.90
2023-04-18T23:22:51.798Z,99.90
2023-04-18T23:25:20.030Z,99.90
2023-04-18T23:27:48.056Z,99.90
2023-04-18T23:30:15.634Z,99.90
2023-04-18T23:32:42.877Z,99.90
2023-04-18T23:35:11.590Z,99.90
2023-04-18T23:37:39.393Z,99.90
2023-04-18T23:40:08.673Z,99.90
2023-04-18T23:42:36.613Z,99.90
2023-04-18T23:45:04.638Z,99.90
2023-04-18T23:47:33.263Z,99.90
2023-04-18T23:50:00.524Z,99.90
2023-04-18T23:52:27.823Z,99.90
2023-04-18T23:55:01.619Z,99.90
2023-04-18T23:57:28.872Z,99.90
2023-04-18T23:59:56.071Z,99.90
